sensor_id;sensor_type;location;lat;lon;timestamp;P1;durP1;ratioP1;P2;durP2;ratioP2
3068;SDS011;1545;51.728;8.796;2023-06-26T00:01:16;14.43;;;10.70;;
3068;SDS011;1545;51.728;8.796;2023-06-26T00:03:42;14.13;;;10.50;;
3068;SDS011;1545;51.728;8.796;2023-06-26T00:06:07;16.43;;;11.57;;
3068;SDS011;1545;51.728;8.796;2023-06-26T00:08:33;16.20;;;11.37;;
3068;SDS011;1545;51.728;8.796;2023-06-26T00:10:58;15.00;;;10.93;;
3068;SDS011;1545;51.728;8.796;2023-06-26T00:13:24;14.27;;;10.63;;
3068;SDS011;1545;51.728;8.796;2023-06-26T00:15:50;17.43;;;11.23;;
3068;SDS011;1545;51.728;8.796;2023-06-26T00:18:16;13.50;;;10.60;;
3068;SDS011;1545;51.728;8.796;2023-06-26T00:20:41;15.63;;;11.23;;
3068;SDS011;1545;51.728;8.796;2023-06-26T00:23:07;16.70;;;11.00;;
3068;SDS011;1545;51.728;8.796;2023-06-26T00:25:33;13.93;;;10.80;;
3068;SDS011;1545;51.728;8.796;2023-06-26T00:27:59;17.90;;;11.17;;
3068;SDS011;1545;51.728;8.796;2023-06-26T00:30:24;20.53;;;11.27;;
3068;SDS011;1545;51.728;8.796;2023-06-26T00:32:50;15.80;;;11.13;;
3068;SDS011;1545;51.728;8.796;2023-06-26T00:35:16;14.37;;;10.67;;
3068;SDS011;1545;51.728;8.796;2023-06-26T00:37:41;16.50;;;10.40;;
3068;SDS011;1545;51.728;8.796;2023-06-26T00:40:07;15.73;;;11.50;;
3068;SDS011;1545;51.728;8.796;2023-06-26T00:42:34;20.30;;;10.93;;
3068;SDS011;1545;51.728;8.796;2023-06-26T00:44:59;15.93;;;11.10;;
3068;SDS011;1545;51.728;8.796;2023-06-26T00:47:24;17.03;;;10.70;;
3068;SDS011;1545;51.728;8.796;2023-06-26T00:49:51;21.83;;;11.43;;
3068;SDS011;1545;51.728;8.796;2023-06-26T00:52:17;13.60;;;10.50;;
3068;SDS011;1545;51.728;8.796;2023-06-26T00:54:42;17.07;;;11.17;;
3068;SDS011;1545;51.728;8.796;2023-06-26T00:57:08;17.97;;;11.40;;
3068;SDS011;1545;51.728;8.796;2023-06-26T00:59:34;16.70;;;11.00;;
3068;SDS011;1545;51.728;8.796;2023-06-26T01:02:00;15.50;;;11.67;;
3068;SDS011;1545;51.728;8.796;2023-06-26T01:04:25;15.90;;;10.77;;
3068;SDS011;1545;51.728;8.796;2023-06-26T01:06:52;16.37;;;10.83;;
3068;SDS011;1545;51.728;8.796;2023-06-26T01:09:19;17.07;;;11.00;;
3068;SDS011;1545;51.728;8.796;2023-06-26T01:11:48;22.73;;;10.73;;
3068;SDS011;1545;51.728;8.796;2023-06-26T01:14:13;14.13;;;10.80;;
3068;SDS011;1545;51.728;8.796;2023-06-26T01:16:39;13.80;;;10.97;;
3068;SDS011;1545;51.728;8.796;2023-06-26T01:19:09;16.10;;;10.67;;
3068;SDS011;1545;51.728;8.796;2023-06-26T01:21:39;12.87;;;10.27;;
3068;SDS011;1545;51.728;8.796;2023-06-26T01:24:09;21.67;;;11.33;;
3068;SDS011;1545;51.728;8.796;2023-06-26T01:26:45;13.90;;;10.53;;
3068;SDS011;1545;51.728;8.796;2023-06-26T01:29:14;12.80;;;10.50;;
3068;SDS011;1545;51.728;8.796;2023-06-26T01:31:42;16.67;;;11.27;;
3068;SDS011;1545;51.728;8.796;2023-06-26T01:34:09;14.43;;;10.93;;
3068;SDS011;1545;51.728;8.796;2023-06-26T01:36:34;14.40;;;10.60;;
3068;SDS011;1545;51.728;8.796;2023-06-26T01:39:02;17.33;;;10.90;;
3068;SDS011;1545;51.728;8.796;2023-06-26T01:41:27;16.17;;;11.00;;
3068;SDS011;1545;51.728;8.796;2023-06-26T01:44:10;15.20;;;11.00;;
3068;SDS011;1545;51.728;8.796;2023-06-26T01:46:58;15.37;;;11.17;;
3068;SDS011;1545;51.728;8.796;2023-06-26T01:49:43;18.60;;;10.77;;
3068;SDS011;1545;51.728;8.796;2023-06-26T01:55:08;13.27;;;10.27;;
3068;SDS011;1545;51.728;8.796;2023-06-26T01:57:42;13.93;;;10.63;;
3068;SDS011;1545;51.728;8.796;2023-06-26T02:00:09;17.73;;;10.87;;
3068;SDS011;1545;51.728;8.796;2023-06-26T02:02:36;16.60;;;11.00;;
3068;SDS011;1545;51.728;8.796;2023-06-26T02:05:01;14.07;;;10.63;;
3068;SDS011;1545;51.728;8.796;2023-06-26T02:07:27;17.17;;;11.00;;
3068;SDS011;1545;51.728;8.796;2023-06-26T02:09:53;13.30;;;9.83;;
3068;SDS011;1545;51.728;8.796;2023-06-26T02:12:18;13.57;;;10.80;;
3068;SDS011;1545;51.728;8.796;2023-06-26T02:14:44;19.43;;;11.17;;
3068;SDS011;1545;51.728;8.796;2023-06-26T02:17:09;18.00;;;10.60;;
3068;SDS011;1545;51.728;8.796;2023-06-26T02:19:35;16.03;;;11.37;;
3068;SDS011;1545;51.728;8.796;2023-06-26T02:22:01;16.10;;;10.93;;
3068;SDS011;1545;51.728;8.796;2023-06-26T02:24:26;15.30;;;10.67;;
3068;SDS011;1545;51.728;8.796;2023-06-26T02:26:55;16.27;;;11.47;;
3068;SDS011;1545;51.728;8.796;2023-06-26T02:29:21;15.73;;;10.73;;
3068;SDS011;1545;51.728;8.796;2023-06-26T02:31:46;13.80;;;10.77;;
3068;SDS011;1545;51.728;8.796;2023-06-26T02:34:12;13.97;;;10.83;;
3068;SDS011;1545;51.728;8.796;2023-06-26T02:36:37;14.33;;;10.80;;
3068;SDS011;1545;51.728;8.796;2023-06-26T02:39:04;17.17;;;11.63;;
3068;SDS011;1545;51.728;8.796;2023-06-26T02:41:30;17.23;;;11.23;;
3068;SDS011;1545;51.728;8.796;2023-06-26T02:43:55;17.13;;;10.97;;
3068;SDS011;1545;51.728;8.796;2023-06-26T02:46:21;17.37;;;11.60;;
3068;SDS011;1545;51.728;8.796;2023-06-26T02:48:46;18.03;;;11.50;;
3068;SDS011;1545;51.728;8.796;2023-06-26T02:51:11;16.77;;;10.70;;
3068;SDS011;1545;51.728;8.796;2023-06-26T02:53:37;18.17;;;11.47;;
3068;SDS011;1545;51.728;8.796;2023-06-26T02:56:02;16.73;;;11.37;;
3068;SDS011;1545;51.728;8.796;2023-06-26T02:58:28;14.73;;;10.40;;
3068;SDS011;1545;51.728;8.796;2023-06-26T03:00:54;15.20;;;11.40;;
3068;SDS011;1545;51.728;8.796;2023-06-26T03:03:19;17.93;;;11.00;;
3068;SDS011;1545;51.728;8.796;2023-06-26T03:05:45;16.57;;;11.33;;
3068;SDS011;1545;51.728;8.796;2023-06-26T03:08:10;14.83;;;11.37;;
3068;SDS011;1545;51.728;8.796;2023-06-26T03:10:35;15.53;;;11.37;;
3068;SDS011;1545;51.728;8.796;2023-06-26T03:13:01;16.97;;;11.00;;
3068;SDS011;1545;51.728;8.796;2023-06-26T03:15:26;14.40;;;10.90;;
3068;SDS011;1545;51.728;8.796;2023-06-26T03:17:52;13.87;;;10.40;;
3068;SDS011;1545;51.728;8.796;2023-06-26T03:20:17;16.20;;;10.80;;
3068;SDS011;1545;51.728;8.796;2023-06-26T03:22:43;18.67;;;10.53;;
3068;SDS011;1545;51.728;8.796;2023-06-26T03:25:08;16.97;;;11.33;;
3068;SDS011;1545;51.728;8.796;2023-06-26T03:27:34;15.17;;;10.57;;
3068;SDS011;1545;51.728;8.796;2023-06-26T03:29:59;15.53;;;11.00;;
3068;SDS011;1545;51.728;8.796;2023-06-26T03:32:25;13.77;;;10.30;;
3068;SDS011;1545;51.728;8.796;2023-06-26T03:34:50;14.63;;;10.57;;
3068;SDS011;1545;51.728;8.796;2023-06-26T03:37:17;16.13;;;10.90;;
3068;SDS011;1545;51.728;8.796;2023-06-26T03:39:43;15.03;;;10.97;;
3068;SDS011;1545;51.728;8.796;2023-06-26T03:42:09;13.77;;;10.70;;
3068;SDS011;1545;51.728;8.796;2023-06-26T03:44:34;16.73;;;10.93;;
3068;SDS011;1545;51.728;8.796;2023-06-26T03:47:00;16.00;;;10.27;;
3068;SDS011;1545;51.728;8.796;2023-06-26T03:49:25;14.30;;;10.10;;
3068;SDS011;1545;51.728;8.796;2023-06-26T03:51:51;14.57;;;10.27;;
3068;SDS011;1545;51.728;8.796;2023-06-26T03:54:16;16.87;;;10.60;;
3068;SDS011;1545;51.728;8.796;2023-06-26T03:56:41;16.57;;;11.47;;
3068;SDS011;1545;51.728;8.796;2023-06-26T03:59:07;15.70;;;10.10;;
3068;SDS011;1545;51.728;8.796;2023-06-26T04:01:33;19.43;;;10.73;;
3068;SDS011;1545;51.728;8.796;2023-06-26T04:04:01;14.80;;;10.60;;
3068;SDS011;1545;51.728;8.796;2023-06-26T04:06:26;16.83;;;11.27;;
3068;SDS011;1545;51.728;8.796;2023-06-26T04:08:52;21.03;;;10.03;;
3068;SDS011;1545;51.728;8.796;2023-06-26T04:11:17;11.97;;;10.00;;
3068;SDS011;1545;51.728;8.796;2023-06-26T04:13:43;13.03;;;9.77;;
3068;SDS011;1545;51.728;8.796;2023-06-26T04:16:08;20.47;;;10.40;;
3068;SDS011;1545;51.728;8.796;2023-06-26T04:18:36;13.10;;;9.37;;
3068;SDS011;1545;51.728;8.796;2023-06-26T04:21:06;14.33;;;9.43;;
3068;SDS011;1545;51.728;8.796;2023-06-26T04:23:33;14.33;;;9.10;;
3068;SDS011;1545;51.728;8.796;2023-06-26T04:25:59;17.88;;;8.88;;
3068;SDS011;1545;51.728;8.796;2023-06-26T04:28:25;17.25;;;8.65;;
3068;SDS011;1545;51.728;8.796;2023-06-26T04:30:51;10.80;;;8.75;;
3068;SDS011;1545;51.728;8.796;2023-06-26T04:33:16;10.50;;;8.07;;
3068;SDS011;1545;51.728;8.796;2023-06-26T04:35:41;10.73;;;7.97;;
3068;SDS011;1545;51.728;8.796;2023-06-26T04:38:09;12.52;;;8.25;;
3068;SDS011;1545;51.728;8.796;2023-06-26T04:40:35;16.38;;;8.15;;
3068;SDS011;1545;51.728;8.796;2023-06-26T04:43:01;9.23;;;7.88;;
3068;SDS011;1545;51.728;8.796;2023-06-26T04:45:26;11.75;;;8.27;;
3068;SDS011;1545;51.728;8.796;2023-06-26T04:47:51;13.45;;;8.27;;
3068;SDS011;1545;51.728;8.796;2023-06-26T04:50:17;13.95;;;9.38;;
3068;SDS011;1545;51.728;8.796;2023-06-26T04:52:44;14.00;;;8.35;;
3068;SDS011;1545;51.728;8.796;2023-06-26T04:55:09;13.65;;;8.88;;
3068;SDS011;1545;51.728;8.796;2023-06-26T04:57:35;9.43;;;8.20;;
3068;SDS011;1545;51.728;8.796;2023-06-26T05:00:03;10.10;;;7.88;;
3068;SDS011;1545;51.728;8.796;2023-06-26T05:02:34;11.10;;;8.75;;
3068;SDS011;1545;51.728;8.796;2023-06-26T05:05:00;11.25;;;8.02;;
3068;SDS011;1545;51.728;8.796;2023-06-26T05:07:25;9.50;;;8.05;;
3068;SDS011;1545;51.728;8.796;2023-06-26T05:09:51;8.82;;;7.82;;
3068;SDS011;1545;51.728;8.796;2023-06-26T05:12:16;13.73;;;7.60;;
3068;SDS011;1545;51.728;8.796;2023-06-26T05:14:42;12.90;;;7.50;;
3068;SDS011;1545;51.728;8.796;2023-06-26T05:17:07;11.55;;;7.78;;
3068;SDS011;1545;51.728;8.796;2023-06-26T05:19:33;8.90;;;6.53;;
3068;SDS011;1545;51.728;8.796;2023-06-26T05:21:58;8.23;;;7.10;;
3068;SDS011;1545;51.728;8.796;2023-06-26T05:24:28;8.68;;;7.13;;
3068;SDS011;1545;51.728;8.796;2023-06-26T05:26:55;7.55;;;6.70;;
3068;SDS011;1545;51.728;8.796;2023-06-26T05:29:21;11.18;;;7.45;;
3068;SDS011;1545;51.728;8.796;2023-06-26T05:31:46;8.75;;;6.90;;
3068;SDS011;1545;51.728;8.796;2023-06-26T05:34:14;11.82;;;7.20;;
3068;SDS011;1545;51.728;8.796;2023-06-26T05:36:42;9.52;;;7.57;;
3068;SDS011;1545;51.728;8.796;2023-06-26T05:39:08;10.32;;;7.40;;
3068;SDS011;1545;51.728;8.796;2023-06-26T05:41:34;8.77;;;6.70;;
3068;SDS011;1545;51.728;8.796;2023-06-26T05:43:59;8.27;;;6.65;;
3068;SDS011;1545;51.728;8.796;2023-06-26T05:46:25;9.75;;;6.85;;
3068;SDS011;1545;51.728;8.796;2023-06-26T05:48:51;8.63;;;6.80;;
3068;SDS011;1545;51.728;8.796;2023-06-26T05:51:16;6.97;;;6.47;;
3068;SDS011;1545;51.728;8.796;2023-06-26T05:53:42;7.30;;;6.57;;
3068;SDS011;1545;51.728;8.796;2023-06-26T05:56:08;8.52;;;6.32;;
3068;SDS011;1545;51.728;8.796;2023-06-26T05:58:35;12.18;;;6.22;;
3068;SDS011;1545;51.728;8.796;2023-06-26T06:01:00;9.70;;;6.38;;
3068;SDS011;1545;51.728;8.796;2023-06-26T06:03:26;11.05;;;6.03;;
3068;SDS011;1545;51.728;8.796;2023-06-26T06:05:51;12.60;;;6.13;;
3068;SDS011;1545;51.728;8.796;2023-06-26T06:08:17;9.90;;;6.53;;
3068;SDS011;1545;51.728;8.796;2023-06-26T06:10:42;9.20;;;6.25;;
3068;SDS011;1545;51.728;8.796;2023-06-26T06:13:08;8.80;;;6.57;;
3068;SDS011;1545;51.728;8.796;2023-06-26T06:15:33;8.30;;;6.28;;
3068;SDS011;1545;51.728;8.796;2023-06-26T06:17:59;12.00;;;6.47;;
3068;SDS011;1545;51.728;8.796;2023-06-26T06:20:25;8.80;;;6.18;;
3068;SDS011;1545;51.728;8.796;2023-06-26T06:22:50;8.98;;;6.03;;
3068;SDS011;1545;51.728;8.796;2023-06-26T06:25:16;14.43;;;6.75;;
3068;SDS011;1545;51.728;8.796;2023-06-26T06:27:41;8.35;;;6.80;;
3068;SDS011;1545;51.728;8.796;2023-06-26T06:30:08;14.45;;;7.25;;
3068;SDS011;1545;51.728;8.796;2023-06-26T06:32:34;10.48;;;6.70;;
3068;SDS011;1545;51.728;8.796;2023-06-26T06:34:59;12.02;;;6.65;;
3068;SDS011;1545;51.728;8.796;2023-06-26T06:37:28;8.85;;;7.15;;
3068;SDS011;1545;51.728;8.796;2023-06-26T06:39:56;8.27;;;7.18;;
3068;SDS011;1545;51.728;8.796;2023-06-26T06:42:23;9.18;;;7.20;;
3068;SDS011;1545;51.728;8.796;2023-06-26T06:44:48;8.52;;;7.25;;
3068;SDS011;1545;51.728;8.796;2023-06-26T06:47:14;13.27;;;7.78;;
3068;SDS011;1545;51.728;8.796;2023-06-26T06:49:39;16.15;;;8.48;;
3068;SDS011;1545;51.728;8.796;2023-06-26T06:52:05;12.80;;;7.97;;
3068;SDS011;1545;51.728;8.796;2023-06-26T06:54:30;17.15;;;8.40;;
3068;SDS011;1545;51.728;8.796;2023-06-26T06:56:56;13.23;;;8.63;;
3068;SDS011;1545;51.728;8.796;2023-06-26T06:59:21;15.73;;;8.20;;
3068;SDS011;1545;51.728;8.796;2023-06-26T07:01:47;14.95;;;9.27;;
3068;SDS011;1545;51.728;8.796;2023-06-26T07:04:12;17.35;;;9.00;;
3068;SDS011;1545;51.728;8.796;2023-06-26T07:06:38;12.20;;;9.63;;
3068;SDS011;1545;51.728;8.796;2023-06-26T07:09:03;15.57;;;9.05;;
3068;SDS011;1545;51.728;8.796;2023-06-26T07:11:29;11.98;;;8.52;;
3068;SDS011;1545;51.728;8.796;2023-06-26T07:13:55;14.18;;;8.35;;
3068;SDS011;1545;51.728;8.796;2023-06-26T07:16:20;14.35;;;8.80;;
3068;SDS011;1545;51.728;8.796;2023-06-26T07:18:46;23.02;;;9.07;;
3068;SDS011;1545;51.728;8.796;2023-06-26T07:21:11;10.32;;;7.88;;
3068;SDS011;1545;51.728;8.796;2023-06-26T07:23:37;13.70;;;8.90;;
3068;SDS011;1545;51.728;8.796;2023-06-26T07:26:02;18.08;;;8.88;;
3068;SDS011;1545;51.728;8.796;2023-06-26T07:28:28;10.55;;;8.60;;
3068;SDS011;1545;51.728;8.796;2023-06-26T07:30:53;17.35;;;8.45;;
3068;SDS011;1545;51.728;8.796;2023-06-26T07:33:19;10.45;;;8.00;;
3068;SDS011;1545;51.728;8.796;2023-06-26T07:35:45;11.85;;;8.00;;
3068;SDS011;1545;51.728;8.796;2023-06-26T07:38:11;13.45;;;7.82;;
3068;SDS011;1545;51.728;8.796;2023-06-26T07:40:36;13.68;;;8.38;;
3068;SDS011;1545;51.728;8.796;2023-06-26T07:43:02;17.30;;;8.68;;
3068;SDS011;1545;51.728;8.796;2023-06-26T07:45:27;14.13;;;8.27;;
3068;SDS011;1545;51.728;8.796;2023-06-26T07:47:53;17.95;;;8.55;;
3068;SDS011;1545;51.728;8.796;2023-06-26T07:50:18;15.45;;;8.68;;
3068;SDS011;1545;51.728;8.796;2023-06-26T07:52:47;14.52;;;8.75;;
3068;SDS011;1545;51.728;8.796;2023-06-26T07:55:12;16.83;;;8.57;;
3068;SDS011;1545;51.728;8.796;2023-06-26T07:57:38;33.20;;;9.65;;
3068;SDS011;1545;51.728;8.796;2023-06-26T08:00:04;12.85;;;9.32;;
3068;SDS011;1545;51.728;8.796;2023-06-26T08:02:31;14.55;;;8.55;;
3068;SDS011;1545;51.728;8.796;2023-06-26T08:04:57;15.98;;;8.20;;
3068;SDS011;1545;51.728;8.796;2023-06-26T08:07:22;16.15;;;9.05;;
3068;SDS011;1545;51.728;8.796;2023-06-26T08:09:48;15.57;;;8.68;;
3068;SDS011;1545;51.728;8.796;2023-06-26T08:12:13;20.25;;;8.68;;
3068;SDS011;1545;51.728;8.796;2023-06-26T08:14:39;17.27;;;9.60;;
3068;SDS011;1545;51.728;8.796;2023-06-26T08:17:04;16.10;;;9.60;;
3068;SDS011;1545;51.728;8.796;2023-06-26T08:19:30;20.05;;;9.98;;
3068;SDS011;1545;51.728;8.796;2023-06-26T08:21:55;17.30;;;10.32;;
3068;SDS011;1545;51.728;8.796;2023-06-26T08:24:21;16.50;;;10.70;;
3068;SDS011;1545;51.728;8.796;2023-06-26T08:26:47;27.48;;;10.80;;
3068;SDS011;1545;51.728;8.796;2023-06-26T08:29:13;31.20;;;11.10;;
3068;SDS011;1545;51.728;8.796;2023-06-26T08:31:39;23.88;;;11.23;;
3068;SDS011;1545;51.728;8.796;2023-06-26T08:34:05;20.65;;;11.30;;
3068;SDS011;1545;51.728;8.796;2023-06-26T08:36:31;18.10;;;11.43;;
3068;SDS011;1545;51.728;8.796;2023-06-26T08:38:57;23.15;;;12.02;;
3068;SDS011;1545;51.728;8.796;2023-06-26T08:41:23;25.27;;;12.57;;
3068;SDS011;1545;51.728;8.796;2023-06-26T08:43:48;25.77;;;11.20;;
3068;SDS011;1545;51.728;8.796;2023-06-26T08:46:16;22.67;;;11.82;;
3068;SDS011;1545;51.728;8.796;2023-06-26T08:48:42;23.27;;;11.43;;
3068;SDS011;1545;51.728;8.796;2023-06-26T08:51:15;16.77;;;11.18;;
3068;SDS011;1545;51.728;8.796;2023-06-26T08:53:46;19.45;;;12.02;;
3068;SDS011;1545;51.728;8.796;2023-06-26T08:56:17;21.65;;;11.52;;
3068;SDS011;1545;51.728;8.796;2023-06-26T08:58:46;19.08;;;10.35;;
3068;SDS011;1545;51.728;8.796;2023-06-26T09:01:13;16.45;;;10.80;;
3068;SDS011;1545;51.728;8.796;2023-06-26T09:03:38;19.33;;;10.00;;
3068;SDS011;1545;51.728;8.796;2023-06-26T09:06:06;23.60;;;10.30;;
3068;SDS011;1545;51.728;8.796;2023-06-26T09:08:32;31.98;;;11.82;;
3068;SDS011;1545;51.728;8.796;2023-06-26T09:10:57;19.65;;;11.35;;
3068;SDS011;1545;51.728;8.796;2023-06-26T09:13:23;22.90;;;11.15;;
3068;SDS011;1545;51.728;8.796;2023-06-26T09:15:49;25.73;;;11.50;;
3068;SDS011;1545;51.728;8.796;2023-06-26T09:18:17;32.42;;;13.10;;
3068;SDS011;1545;51.728;8.796;2023-06-26T09:20:44;28.35;;;13.25;;
3068;SDS011;1545;51.728;8.796;2023-06-26T09:23:10;19.92;;;11.82;;
3068;SDS011;1545;51.728;8.796;2023-06-26T09:25:37;27.13;;;12.70;;
3068;SDS011;1545;51.728;8.796;2023-06-26T09:28:04;21.80;;;12.57;;
3068;SDS011;1545;51.728;8.796;2023-06-26T09:30:33;26.52;;;11.80;;
3068;SDS011;1545;51.728;8.796;2023-06-26T09:33:18;34.33;;;13.25;;
3068;SDS011;1545;51.728;8.796;2023-06-26T09:35:45;26.70;;;12.60;;
3068;SDS011;1545;51.728;8.796;2023-06-26T09:38:14;20.50;;;12.38;;
3068;SDS011;1545;51.728;8.796;2023-06-26T09:40:40;22.45;;;13.88;;
3068;SDS011;1545;51.728;8.796;2023-06-26T09:43:06;33.10;;;12.85;;
3068;SDS011;1545;51.728;8.796;2023-06-26T09:45:33;21.98;;;13.77;;
3068;SDS011;1545;51.728;8.796;2023-06-26T09:48:08;25.85;;;13.60;;
3068;SDS011;1545;51.728;8.796;2023-06-26T09:50:34;23.00;;;13.45;;
3068;SDS011;1545;51.728;8.796;2023-06-26T09:53:11;25.25;;;13.60;;
3068;SDS011;1545;51.728;8.796;2023-06-26T09:55:40;29.95;;;12.90;;
3068;SDS011;1545;51.728;8.796;2023-06-26T09:58:08;27.67;;;13.55;;
3068;SDS011;1545;51.728;8.796;2023-06-26T10:00:40;28.70;;;13.30;;
3068;SDS011;1545;51.728;8.796;2023-06-26T10:03:10;25.55;;;13.93;;
3068;SDS011;1545;51.728;8.796;2023-06-26T10:05:36;22.52;;;12.93;;
3068;SDS011;1545;51.728;8.796;2023-06-26T10:08:03;23.17;;;12.73;;
3068;SDS011;1545;51.728;8.796;2023-06-26T10:10:30;18.88;;;12.18;;
3068;SDS011;1545;51.728;8.796;2023-06-26T10:13:00;24.83;;;12.55;;
3068;SDS011;1545;51.728;8.796;2023-06-26T10:15:34;20.75;;;11.93;;
3068;SDS011;1545;51.728;8.796;2023-06-26T10:20:35;22.52;;;11.10;;
3068;SDS011;1545;51.728;8.796;2023-06-26T10:23:01;26.33;;;12.80;;
3068;SDS011;1545;51.728;8.796;2023-06-26T10:25:27;24.48;;;10.65;;
3068;SDS011;1545;51.728;8.796;2023-06-26T10:27:57;18.13;;;11.32;;
3068;SDS011;1545;51.728;8.796;2023-06-26T10:30:26;21.13;;;11.20;;
3068;SDS011;1545;51.728;8.796;2023-06-26T10:32:54;19.85;;;12.10;;
3068;SDS011;1545;51.728;8.796;2023-06-26T10:35:21;25.70;;;13.13;;
3068;SDS011;1545;51.728;8.796;2023-06-26T10:37:50;21.70;;;11.83;;
3068;SDS011;1545;51.728;8.796;2023-06-26T10:40:23;27.93;;;12.47;;
3068;SDS011;1545;51.728;8.796;2023-06-26T10:42:50;20.47;;;11.83;;
3068;SDS011;1545;51.728;8.796;2023-06-26T10:45:17;23.63;;;11.27;;
3068;SDS011;1545;51.728;8.796;2023-06-26T10:47:48;18.60;;;11.53;;
3068;SDS011;1545;51.728;8.796;2023-06-26T10:50:27;20.87;;;11.83;;
3068;SDS011;1545;51.728;8.796;2023-06-26T10:55:36;24.63;;;11.30;;
3068;SDS011;1545;51.728;8.796;2023-06-26T10:58:02;29.55;;;11.23;;
3068;SDS011;1545;51.728;8.796;2023-06-26T11:00:28;16.30;;;10.52;;
3068;SDS011;1545;51.728;8.796;2023-06-26T11:02:54;29.92;;;9.57;;
3068;SDS011;1545;51.728;8.796;2023-06-26T11:05:29;17.95;;;8.80;;
3068;SDS011;1545;51.728;8.796;2023-06-26T11:08:04;17.65;;;9.35;;
3068;SDS011;1545;51.728;8.796;2023-06-26T11:10:47;29.77;;;9.10;;
3068;SDS011;1545;51.728;8.796;2023-06-26T11:13:24;23.17;;;9.73;;
3068;SDS011;1545;51.728;8.796;2023-06-26T11:15:51;17.75;;;8.45;;
3068;SDS011;1545;51.728;8.796;2023-06-26T11:18:16;20.45;;;8.15;;
3068;SDS011;1545;51.728;8.796;2023-06-26T11:20:42;14.65;;;8.13;;
3068;SDS011;1545;51.728;8.796;2023-06-26T11:23:08;14.63;;;7.80;;
3068;SDS011;1545;51.728;8.796;2023-06-26T11:25:35;18.58;;;8.23;;
3068;SDS011;1545;51.728;8.796;2023-06-26T11:28:02;15.75;;;8.60;;
3068;SDS011;1545;51.728;8.796;2023-06-26T11:30:29;16.60;;;8.75;;
3068;SDS011;1545;51.728;8.796;2023-06-26T11:33:09;23.25;;;8.93;;
3068;SDS011;1545;51.728;8.796;2023-06-26T11:35:35;21.10;;;9.18;;
3068;SDS011;1545;51.728;8.796;2023-06-26T11:38:02;16.58;;;9.45;;
3068;SDS011;1545;51.728;8.796;2023-06-26T11:40:32;14.82;;;9.05;;
3068;SDS011;1545;51.728;8.796;2023-06-26T11:42:59;19.83;;;8.05;;
3068;SDS011;1545;51.728;8.796;2023-06-26T11:45:31;26.70;;;8.00;;
3068;SDS011;1545;51.728;8.796;2023-06-26T11:47:57;12.48;;;7.63;;
3068;SDS011;1545;51.728;8.796;2023-06-26T11:50:24;16.02;;;7.10;;
3068;SDS011;1545;51.728;8.796;2023-06-26T11:52:57;12.25;;;6.63;;
3068;SDS011;1545;51.728;8.796;2023-06-26T11:55:25;17.33;;;7.30;;
3068;SDS011;1545;51.728;8.796;2023-06-26T11:57:55;15.87;;;6.93;;
3068;SDS011;1545;51.728;8.796;2023-06-26T12:00:21;19.77;;;7.47;;
3068;SDS011;1545;51.728;8.796;2023-06-26T12:02:47;11.52;;;7.10;;
3068;SDS011;1545;51.728;8.796;2023-06-26T12:05:14;20.30;;;8.33;;
3068;SDS011;1545;51.728;8.796;2023-06-26T12:07:42;17.60;;;7.60;;
3068;SDS011;1545;51.728;8.796;2023-06-26T12:10:08;17.83;;;7.35;;
3068;SDS011;1545;51.728;8.796;2023-06-26T12:12:36;17.48;;;8.05;;
3068;SDS011;1545;51.728;8.796;2023-06-26T12:15:02;20.33;;;7.70;;
3068;SDS011;1545;51.728;8.796;2023-06-26T12:17:28;20.98;;;7.85;;
3068;SDS011;1545;51.728;8.796;2023-06-26T12:19:54;12.18;;;6.63;;
3068;SDS011;1545;51.728;8.796;2023-06-26T12:22:20;18.42;;;7.30;;
3068;SDS011;1545;51.728;8.796;2023-06-26T12:24:46;20.47;;;7.90;;
3068;SDS011;1545;51.728;8.796;2023-06-26T12:27:13;12.33;;;6.40;;
3068;SDS011;1545;51.728;8.796;2023-06-26T12:29:40;21.37;;;7.10;;
3068;SDS011;1545;51.728;8.796;2023-06-26T12:32:11;10.68;;;6.88;;
3068;SDS011;1545;51.728;8.796;2023-06-26T12:34:38;15.27;;;6.18;;
3068;SDS011;1545;51.728;8.796;2023-06-26T12:37:05;14.48;;;6.30;;
3068;SDS011;1545;51.728;8.796;2023-06-26T12:39:51;14.73;;;6.68;;
3068;SDS011;1545;51.728;8.796;2023-06-26T12:42:22;13.88;;;6.15;;
3068;SDS011;1545;51.728;8.796;2023-06-26T12:44:52;12.35;;;5.85;;
3068;SDS011;1545;51.728;8.796;2023-06-26T12:47:23;12.13;;;5.82;;
3068;SDS011;1545;51.728;8.796;2023-06-26T12:49:50;11.02;;;6.43;;
3068;SDS011;1545;51.728;8.796;2023-06-26T12:52:16;11.32;;;5.95;;
3068;SDS011;1545;51.728;8.796;2023-06-26T12:54:46;9.70;;;4.90;;
3068;SDS011;1545;51.728;8.796;2023-06-26T12:57:16;9.18;;;5.03;;
3068;SDS011;1545;51.728;8.796;2023-06-26T12:59:41;11.93;;;5.03;;
3068;SDS011;1545;51.728;8.796;2023-06-26T13:02:07;16.67;;;4.82;;
3068;SDS011;1545;51.728;8.796;2023-06-26T13:04:34;17.60;;;4.65;;
3068;SDS011;1545;51.728;8.796;2023-06-26T13:07:00;10.18;;;5.05;;
3068;SDS011;1545;51.728;8.796;2023-06-26T13:09:26;11.85;;;4.57;;
3068;SDS011;1545;51.728;8.796;2023-06-26T13:11:52;13.95;;;5.72;;
3068;SDS011;1545;51.728;8.796;2023-06-26T13:14:17;16.85;;;5.88;;
3068;SDS011;1545;51.728;8.796;2023-06-26T13:16:43;8.80;;;4.88;;
3068;SDS011;1545;51.728;8.796;2023-06-26T13:19:09;14.85;;;4.95;;
3068;SDS011;1545;51.728;8.796;2023-06-26T13:21:34;9.98;;;5.15;;
3068;SDS011;1545;51.728;8.796;2023-06-26T13:24:00;10.75;;;4.90;;
3068;SDS011;1545;51.728;8.796;2023-06-26T13:26:28;10.48;;;4.70;;
3068;SDS011;1545;51.728;8.796;2023-06-26T13:28:54;9.52;;;5.05;;
3068;SDS011;1545;51.728;8.796;2023-06-26T13:31:20;12.85;;;5.18;;
3068;SDS011;1545;51.728;8.796;2023-06-26T13:33:46;15.30;;;5.43;;
3068;SDS011;1545;51.728;8.796;2023-06-26T13:36:13;9.93;;;4.97;;
3068;SDS011;1545;51.728;8.796;2023-06-26T13:38:40;10.13;;;4.90;;
3068;SDS011;1545;51.728;8.796;2023-06-26T13:41:05;9.27;;;5.10;;
3068;SDS011;1545;51.728;8.796;2023-06-26T13:43:31;8.73;;;5.10;;
3068;SDS011;1545;51.728;8.796;2023-06-26T13:45:57;13.27;;;5.33;;
3068;SDS011;1545;51.728;8.796;2023-06-26T13:48:22;21.23;;;5.15;;
3068;SDS011;1545;51.728;8.796;2023-06-26T13:50:49;10.75;;;4.90;;
3068;SDS011;1545;51.728;8.796;2023-06-26T13:53:15;7.80;;;4.87;;
3068;SDS011;1545;51.728;8.796;2023-06-26T13:55:41;9.52;;;5.97;;
3068;SDS011;1545;51.728;8.796;2023-06-26T13:58:08;17.10;;;5.67;;
3068;SDS011;1545;51.728;8.796;2023-06-26T14:00:34;18.23;;;6.20;;
3068;SDS011;1545;51.728;8.796;2023-06-26T14:03:01;11.97;;;5.60;;
3068;SDS011;1545;51.728;8.796;2023-06-26T14:05:28;15.53;;;5.90;;
3068;SDS011;1545;51.728;8.796;2023-06-26T14:07:54;11.63;;;5.10;;
3068;SDS011;1545;51.728;8.796;2023-06-26T14:10:20;10.30;;;5.40;;
3068;SDS011;1545;51.728;8.796;2023-06-26T14:12:46;20.53;;;10.13;;
3068;SDS011;1545;51.728;8.796;2023-06-26T14:15:18;15.20;;;5.97;;
3068;SDS011;1545;51.728;8.796;2023-06-26T14:17:44;13.77;;;6.20;;
3068;SDS011;1545;51.728;8.796;2023-06-26T14:20:10;10.70;;;5.40;;
3068;SDS011;1545;51.728;8.796;2023-06-26T14:22:38;13.73;;;5.80;;
3068;SDS011;1545;51.728;8.796;2023-06-26T14:25:04;13.53;;;5.10;;
3068;SDS011;1545;51.728;8.796;2023-06-26T14:27:31;15.40;;;5.67;;
3068;SDS011;1545;51.728;8.796;2023-06-26T14:29:56;7.20;;;4.50;;
3068;SDS011;1545;51.728;8.796;2023-06-26T14:32:22;13.87;;;4.63;;
3068;SDS011;1545;51.728;8.796;2023-06-26T14:34:47;15.13;;;4.33;;
3068;SDS011;1545;51.728;8.796;2023-06-26T14:37:13;10.27;;;4.73;;
3068;SDS011;1545;51.728;8.796;2023-06-26T14:39:38;7.67;;;4.70;;
3068;SDS011;1545;51.728;8.796;2023-06-26T14:42:04;13.57;;;4.70;;
3068;SDS011;1545;51.728;8.796;2023-06-26T14:44:30;11.70;;;5.20;;
3068;SDS011;1545;51.728;8.796;2023-06-26T14:46:55;7.93;;;4.30;;
3068;SDS011;1545;51.728;8.796;2023-06-26T14:49:21;12.97;;;4.07;;
3068;SDS011;1545;51.728;8.796;2023-06-26T14:51:47;7.53;;;3.67;;
3068;SDS011;1545;51.728;8.796;2023-06-26T14:54:12;9.83;;;3.77;;
3068;SDS011;1545;51.728;8.796;2023-06-26T14:56:38;22.47;;;4.00;;
3068;SDS011;1545;51.728;8.796;2023-06-26T14:59:04;5.70;;;3.40;;
3068;SDS011;1545;51.728;8.796;2023-06-26T15:01:32;8.60;;;3.47;;
3068;SDS011;1545;51.728;8.796;2023-06-26T15:03:58;5.50;;;3.63;;